Franklintown, Pennsylvania
Current Conditions -  °F | °C
As of 3:56 PM on Saturday 20 Dec 2014 (Local Time) from KCXY Reporting Station
Clear Clear  
Wind Chill: 30°   Ceiling: Unl
Heat Index: 34°   Visibility: 10mi
Dew Point: 20°   Wind: 5mph
Humidity: 56%   Direction: 350°N
Pressure: 30.26"   Gusts: NA
Location:  40.08°N, 77.03°W
Report Text: KCXY 202056Z 35004KT 10SM CLR 01/M07 A3026 RMK AO2 SLP252 T00111067 55002
Loading
Personal Weather Stations






























Interactive Weather Map New forecast layout! Learn more

10-Day Weather Forecast

Advertisements
Track Severe Weather on mobile